createdAt,value
2023-03-26T00:01:07.580Z,100.00
2023-03-26T00:03:34.912Z,100.00
2023-03-26T00:06:03.450Z,100.00
2023-03-26T00:08:29.840Z,100.00
2023-03-26T00:10:56.337Z,100.00
2023-03-26T00:13:22.655Z,100.00
2023-03-26T00:15:49.203Z,100.00
2023-03-26T00:18:15.939Z,100.00
2023-03-26T00:20:42.251Z,100.00
2023-03-26T00:23:08.911Z,100.00
2023-03-26T00:25:38.282Z,100.00
2023-03-26T00:28:06.212Z,100.00
2023-03-26T00:30:33.610Z,100.00
2023-03-26T00:33:00.059Z,100.00
2023-03-26T00:35:26.457Z,100.00
2023-03-26T00:37:53.666Z,100.00
2023-03-26T00:40:20.198Z,100.00
2023-03-26T00:42:46.636Z,100.00
2023-03-26T00:45:12.998Z,100.00
2023-03-26T00:47:40.524Z,100.00
2023-03-26T00:50:07.654Z,100.00
2023-03-26T00:52:36.153Z,100.00
2023-03-26T00:55:03.035Z,100.00
2023-03-26T00:59:59.255Z,100.00
2023-03-26T01:02:27.461Z,100.00
2023-03-26T01:04:56.871Z,100.00
2023-03-26T01:07:28.889Z,100.00
2023-03-26T01:09:57.560Z,100.00
2023-03-26T01:12:27.904Z,100.00
2023-03-26T01:14:56.693Z,100.00
2023-03-26T01:17:23.711Z,100.00
2023-03-26T01:19:56.369Z,100.00
2023-03-26T01:22:24.470Z,100.00
2023-03-26T01:24:56.303Z,100.00
2023-03-26T01:27:29.012Z,100.00
2023-03-26T01:29:59.665Z,100.00
2023-03-26T01:32:38.565Z,100.00
2023-03-26T01:35:14.372Z,100.00
2023-03-26T01:37:46.834Z,100.00
2023-03-26T01:40:18.921Z,100.00
2023-03-26T01:42:51.197Z,100.00
2023-03-26T01:45:21.141Z,100.00
2023-03-26T01:47:47.848Z,100.00
2023-03-26T01:50:14.775Z,100.00
2023-03-26T01:52:41.174Z,100.00
2023-03-26T01:55:11.651Z,100.00
2023-03-26T01:57:38.060Z,100.00
2023-03-26T02:00:15.184Z,100.00
2023-03-26T02:02:44.355Z,100.00
2023-03-26T02:05:28.724Z,100.00
2023-03-26T02:08:16.586Z,100.00
2023-03-26T02:10:45.034Z,100.00
2023-03-26T02:13:12.673Z,100.00
2023-03-26T02:15:54.208Z,100.00
2023-03-26T02:18:23.994Z,100.00
2023-03-26T02:20:53.300Z,100.00
2023-03-26T02:23:20.685Z,100.00
2023-03-26T02:25:47.401Z,100.00
2023-03-26T02:28:13.788Z,100.00
2023-03-26T02:30:40.572Z,100.00
2023-03-26T02:33:07.159Z,100.00
2023-03-26T02:35:33.598Z,100.00
2023-03-26T02:37:59.995Z,100.00
2023-03-26T02:40:26.333Z,100.00
2023-03-26T02:42:52.634Z,100.00
2023-03-26T02:45:18.931Z,100.00
2023-03-26T02:47:45.967Z,100.00
2023-03-26T02:50:12.525Z,100.00
2023-03-26T02:52:39.038Z,100.00
2023-03-26T02:55:05.669Z,100.00
2023-03-26T02:57:32.083Z,100.00
2023-03-26T02:59:58.413Z,100.00
2023-03-26T03:02:25.626Z,100.00
2023-03-26T03:04:52.080Z,100.00
2023-03-26T03:07:18.387Z,100.00
2023-03-26T03:09:44.721Z,100.00
2023-03-26T03:12:11.169Z,100.00
2023-03-26T03:14:37.768Z,100.00
2023-03-26T03:17:04.149Z,100.00
2023-03-26T03:19:30.612Z,100.00
2023-03-26T03:21:56.990Z,100.00
2023-03-26T03:24:23.487Z,100.00
2023-03-26T03:26:50.339Z,100.00
2023-03-26T03:29:16.695Z,100.00
2023-03-26T03:31:43.184Z,100.00
2023-03-26T03:34:09.483Z,100.00
2023-03-26T03:36:38.464Z,100.00
2023-03-26T03:39:05.158Z,100.00
2023-03-26T03:41:31.525Z,100.00
2023-03-26T03:43:59.695Z,100.00
2023-03-26T03:46:26.177Z,100.00
2023-03-26T03:48:52.496Z,100.00
2023-03-26T03:51:19.074Z,100.00
2023-03-26T03:53:46.219Z,100.00
2023-03-26T03:56:14.552Z,100.00
2023-03-26T03:58:41.658Z,100.00
2023-03-26T04:01:08.007Z,100.00
2023-03-26T04:03:38.747Z,100.00
2023-03-26T04:06:11.039Z,100.00
2023-03-26T04:08:37.414Z,100.00
2023-03-26T04:11:04.086Z,100.00
2023-03-26T04:13:30.476Z,100.00
2023-03-26T04:15:57.234Z,100.00
2023-03-26T04:18:23.800Z,100.00
2023-03-26T04:20:50.763Z,100.00
2023-03-26T04:23:18.156Z,100.00
2023-03-26T04:25:48.487Z,100.00
2023-03-26T04:28:32.860Z,100.00
2023-03-26T04:31:01.349Z,100.00
2023-03-26T04:33:31.753Z,100.00
2023-03-26T04:36:02.495Z,100.00
2023-03-26T04:38:29.732Z,100.00
2023-03-26T04:41:00.298Z,100.00
2023-03-26T04:43:27.884Z,100.00
2023-03-26T04:45:54.678Z,100.00
2023-03-26T04:48:21.896Z,100.00
2023-03-26T04:50:48.393Z,100.00
2023-03-26T04:53:18.453Z,100.00
2023-03-26T04:56:13.825Z,100.00
2023-03-26T04:58:40.591Z,100.00
2023-03-26T05:01:10.514Z,100.00
2023-03-26T05:03:39.541Z,100.00
2023-03-26T05:06:06.123Z,100.00
2023-03-26T05:08:32.462Z,100.00
2023-03-26T05:10:58.823Z,100.00
2023-03-26T05:13:25.122Z,100.00
2023-03-26T05:15:52.487Z,100.00
2023-03-26T05:18:18.796Z,100.00
2023-03-26T05:20:45.194Z,100.00
2023-03-26T05:23:11.684Z,100.00
2023-03-26T05:25:38.059Z,100.00
2023-03-26T05:28:04.422Z,100.00
2023-03-26T05:30:30.846Z,100.00
2023-03-26T05:32:57.171Z,100.00
2023-03-26T05:35:23.597Z,100.00
2023-03-26T05:37:51.476Z,100.00
2023-03-26T05:40:18.070Z,100.00
2023-03-26T05:42:44.455Z,100.00
2023-03-26T05:45:11.760Z,100.00
2023-03-26T05:47:38.436Z,100.00
2023-03-26T05:50:05.055Z,100.00
2023-03-26T05:52:32.028Z,100.00
2023-03-26T05:54:58.440Z,100.00
2023-03-26T05:57:28.217Z,100.00
2023-03-26T05:59:55.620Z,100.00
2023-03-26T06:02:22.211Z,100.00
2023-03-26T06:04:48.644Z,100.00
2023-03-26T06:07:16.784Z,100.00
2023-03-26T06:09:43.634Z,100.00
2023-03-26T06:12:10.621Z,100.00
2023-03-26T06:14:37.302Z,100.00
2023-03-26T06:17:04.077Z,100.00
2023-03-26T06:19:30.644Z,100.00
2023-03-26T06:21:56.977Z,100.00
2023-03-26T06:24:23.346Z,100.00
2023-03-26T06:26:49.693Z,100.00
2023-03-26T06:29:16.168Z,100.00
2023-03-26T06:31:42.733Z,100.00
2023-03-26T06:34:09.116Z,100.00
2023-03-26T06:36:35.771Z,100.00
2023-03-26T06:39:02.508Z,100.00
2023-03-26T06:41:34.800Z,100.00
2023-03-26T06:44:02.123Z,100.00
2023-03-26T06:46:28.596Z,100.00
2023-03-26T06:48:55.397Z,100.00
2023-03-26T06:51:21.749Z,100.00
2023-03-26T06:53:48.080Z,100.00
2023-03-26T06:56:15.014Z,100.00
2023-03-26T06:58:41.359Z,100.00
2023-03-26T07:01:07.781Z,100.00
2023-03-26T07:03:34.232Z,100.00
2023-03-26T07:06:00.702Z,100.00
2023-03-26T07:08:27.070Z,100.00
2023-03-26T07:10:53.580Z,100.00
2023-03-26T07:13:20.363Z,100.00
2023-03-26T07:15:48.834Z,100.00
2023-03-26T07:18:15.184Z,100.00
2023-03-26T07:20:42.374Z,100.00
2023-03-26T07:23:10.487Z,100.00
2023-03-26T07:25:37.019Z,100.00
2023-03-26T07:28:22.236Z,100.00
2023-03-26T07:31:00.908Z,100.00
2023-03-26T07:33:42.508Z,100.00
2023-03-26T07:36:17.947Z,100.00
2023-03-26T07:38:56.021Z,100.00
2023-03-26T07:41:33.992Z,100.00
2023-03-26T07:44:12.316Z,100.00
2023-03-26T07:46:39.286Z,100.00
2023-03-26T07:49:06.027Z,100.00
2023-03-26T07:51:32.783Z,100.00
2023-03-26T07:54:00.636Z,100.00
2023-03-26T07:56:38.688Z,100.00
2023-03-26T07:59:21.481Z,100.00
2023-03-26T08:02:01.520Z,100.00
2023-03-26T08:04:38.968Z,100.00
2023-03-26T08:07:10.921Z,100.00
2023-03-26T08:09:37.215Z,100.00
2023-03-26T08:12:26.905Z,100.00
2023-03-26T08:14:59.353Z,100.00
2023-03-26T08:17:34.404Z,100.00
2023-03-26T08:20:02.130Z,100.00
2023-03-26T08:22:34.110Z,100.00
2023-03-26T08:25:06.600Z,100.00
2023-03-26T08:27:34.456Z,100.00
2023-03-26T08:30:08.602Z,100.00
2023-03-26T08:32:35.226Z,100.00
2023-03-26T08:35:03.985Z,100.00
2023-03-26T08:37:30.621Z,100.00
2023-03-26T08:39:57.478Z,100.00
2023-03-26T08:42:51.181Z,100.00
2023-03-26T08:45:36.413Z,100.00
2023-03-26T08:48:05.962Z,100.00
2023-03-26T08:50:32.271Z,100.00
2023-03-26T08:52:58.662Z,100.00
2023-03-26T08:55:25.846Z,100.00
2023-03-26T08:57:52.469Z,100.00
2023-03-26T09:00:33.931Z,100.00
2023-03-26T09:03:17.233Z,100.00
2023-03-26T09:05:43.537Z,100.00
2023-03-26T09:08:12.926Z,100.00
2023-03-26T09:10:52.384Z,100.00
2023-03-26T09:13:21.837Z,100.00
2023-03-26T09:15:48.283Z,100.00
2023-03-26T09:18:20.591Z,100.00
2023-03-26T09:20:59.088Z,100.00
2023-03-26T09:23:52.537Z,100.00
2023-03-26T09:26:25.315Z,100.00
2023-03-26T09:28:57.806Z,100.00
2023-03-26T09:31:43.048Z,100.00
2023-03-26T09:34:09.348Z,100.00
2023-03-26T09:36:38.841Z,100.00
2023-03-26T09:39:05.120Z,100.00
2023-03-26T09:41:31.405Z,100.00
2023-03-26T09:44:14.859Z,100.00
2023-03-26T09:46:47.275Z,100.00
2023-03-26T09:49:24.733Z,100.00
2023-03-26T09:51:51.230Z,100.00
2023-03-26T09:54:30.332Z,100.00
2023-03-26T09:56:59.742Z,100.00
2023-03-26T09:59:35.306Z,100.00
2023-03-26T10:02:13.960Z,100.00
2023-03-26T10:05:00.414Z,100.00
2023-03-26T10:07:47.864Z,100.00
2023-03-26T10:10:26.872Z,100.00
2023-03-26T10:13:08.159Z,100.00
2023-03-26T10:15:58.463Z,100.00
2023-03-26T10:18:45.340Z,100.00
2023-03-26T10:21:15.838Z,100.00
2023-03-26T10:23:49.679Z,100.00
2023-03-26T10:26:28.062Z,100.00
2023-03-26T10:29:03.565Z,100.00
2023-03-26T10:31:42.706Z,100.00
2023-03-26T10:34:28.546Z,100.00
2023-03-26T10:37:21.900Z,100.00
2023-03-26T10:40:05.923Z,100.00
2023-03-26T10:42:40.769Z,100.00
2023-03-26T10:45:09.993Z,100.00
2023-03-26T10:47:51.614Z,100.00
2023-03-26T10:50:26.844Z,100.00
2023-03-26T10:53:07.050Z,100.00
2023-03-26T10:55:38.534Z,100.00
2023-03-26T10:58:20.441Z,100.00
2023-03-26T11:00:54.753Z,100.00
2023-03-26T11:03:21.155Z,100.00
2023-03-26T11:05:59.357Z,100.00
2023-03-26T11:08:32.677Z,100.00
2023-03-26T11:11:20.076Z,100.00
2023-03-26T11:13:53.708Z,100.00
2023-03-26T11:16:20.196Z,100.00
2023-03-26T11:18:55.506Z,100.00
2023-03-26T11:21:26.607Z,100.00
2023-03-26T11:24:05.177Z,100.00
2023-03-26T11:26:52.914Z,100.00
2023-03-26T11:29:33.577Z,100.00
2023-03-26T11:32:10.256Z,85.71
2023-03-26T11:34:46.965Z,75.68
2023-03-26T11:37:20.041Z,71.59
2023-03-26T11:39:51.419Z,80.73
2023-03-26T11:42:21.295Z,100.00
2023-03-26T11:45:02.635Z,100.00
2023-03-26T11:47:32.100Z,77.47
2023-03-26T11:50:00.192Z,76.59
2023-03-26T11:52:27.440Z,67.12
2023-03-26T11:54:54.126Z,74.67
2023-03-26T11:57:23.426Z,68.12
2023-03-26T11:59:57.197Z,60.72
2023-03-26T12:02:26.141Z,54.97
2023-03-26T12:04:55.339Z,51.68
2023-03-26T12:07:23.017Z,52.03
2023-03-26T12:10:18.658Z,51.55
2023-03-26T12:12:46.692Z,54.28
2023-03-26T12:15:18.910Z,63.46
2023-03-26T12:17:51.337Z,60.53
2023-03-26T12:20:23.554Z,67.91
2023-03-26T12:22:52.047Z,75.58
2023-03-26T12:25:25.781Z,78.35
2023-03-26T12:28:04.720Z,88.38
2023-03-26T12:30:31.230Z,82.26
2023-03-26T12:33:00.911Z,65.21
2023-03-26T12:35:27.976Z,66.60
2023-03-26T12:37:55.354Z,73.73
2023-03-26T12:40:34.220Z,86.15
2023-03-26T12:44:47.105Z,99.81
2023-03-26T12:46:03.578Z,81.93
2023-03-26T12:48:41.177Z,68.70
2023-03-26T12:51:15.691Z,60.12
2023-03-26T12:53:50.917Z,55.00
2023-03-26T12:56:21.878Z,55.17
2023-03-26T12:59:05.252Z,60.36
2023-03-26T13:01:45.226Z,70.02
2023-03-26T13:04:17.530Z,72.13
2023-03-26T13:06:59.597Z,55.14
2023-03-26T13:09:28.557Z,55.08
2023-03-26T13:12:25.066Z,46.60
2023-03-26T13:15:10.130Z,45.59
2023-03-26T13:18:04.206Z,44.59
2023-03-26T13:20:37.342Z,43.17
2023-03-26T13:23:22.495Z,41.91
2023-03-26T13:26:00.133Z,41.08
2023-03-26T13:28:26.614Z,40.96
2023-03-26T13:31:01.952Z,43.86
2023-03-26T13:33:31.037Z,43.08
2023-03-26T13:36:24.069Z,45.97
2023-03-26T13:39:09.419Z,48.25
2023-03-26T13:41:54.382Z,50.27
2023-03-26T13:44:23.907Z,54.33
2023-03-26T13:46:53.239Z,58.67
2023-03-26T13:49:33.733Z,63.96
2023-03-26T13:52:00.035Z,66.37
2023-03-26T13:54:30.509Z,67.80
2023-03-26T13:57:02.882Z,71.08
2023-03-26T13:59:38.129Z,75.46
2023-03-26T14:02:15.469Z,69.88
2023-03-26T14:04:46.420Z,69.48
2023-03-26T14:07:18.034Z,64.54
2023-03-26T14:09:47.326Z,55.89
2023-03-26T14:12:21.349Z,58.46
2023-03-26T14:14:54.382Z,59.05
2023-03-26T14:17:20.692Z,59.63
2023-03-26T14:20:06.316Z,64.43
2023-03-26T14:22:38.156Z,73.05
2023-03-26T14:25:04.571Z,95.30
2023-03-26T14:27:40.504Z,100.00
2023-03-26T14:30:22.761Z,100.00
2023-03-26T14:33:07.832Z,100.00
2023-03-26T14:35:35.025Z,100.00
2023-03-26T14:38:10.252Z,88.55
2023-03-26T14:40:49.633Z,93.09
2023-03-26T14:43:23.340Z,100.00
2023-03-26T14:46:08.036Z,100.00
2023-03-26T14:48:51.559Z,95.41
2023-03-26T14:51:33.891Z,83.15
2023-03-26T14:54:02.895Z,81.04
2023-03-26T14:56:47.380Z,91.88
2023-03-26T14:59:32.699Z,91.20
2023-03-26T15:02:05.140Z,88.94
2023-03-26T15:04:49.664Z,100.00
2023-03-26T15:07:34.306Z,100.00
2023-03-26T15:10:16.831Z,100.00
2023-03-26T15:12:50.917Z,100.00
2023-03-26T15:15:26.507Z,100.00
2023-03-26T15:18:08.261Z,100.00
2023-03-26T15:20:37.732Z,100.00
2023-03-26T15:23:10.198Z,100.00
2023-03-26T15:25:36.482Z,100.00
2023-03-26T15:28:12.215Z,100.00
2023-03-26T15:30:54.189Z,100.00
2023-03-26T15:33:39.808Z,100.00
2023-03-26T15:36:16.763Z,100.00
2023-03-26T15:38:57.155Z,100.00
2023-03-26T15:41:28.346Z,100.00
2023-03-26T15:44:25.232Z,100.00
2023-03-26T15:46:54.444Z,100.00
2023-03-26T15:49:33.299Z,100.00
2023-03-26T15:52:18.763Z,100.00
2023-03-26T15:54:53.383Z,100.00
2023-03-26T15:57:39.059Z,100.00
2023-03-26T16:00:31.887Z,100.00
2023-03-26T16:02:58.323Z,100.00
2023-03-26T16:05:25.466Z,100.00
2023-03-26T16:07:58.801Z,100.00
2023-03-26T16:10:34.263Z,100.00
2023-03-26T16:13:19.444Z,100.00
2023-03-26T16:16:16.121Z,100.00
2023-03-26T16:18:46.979Z,100.00
2023-03-26T16:21:31.901Z,100.00
2023-03-26T16:24:02.171Z,100.00
2023-03-26T16:26:31.473Z,100.00
2023-03-26T16:29:16.224Z,100.00
2023-03-26T16:32:01.709Z,100.00
2023-03-26T16:34:28.375Z,100.00
2023-03-26T16:36:55.027Z,100.00
2023-03-26T16:39:25.018Z,100.00
2023-03-26T16:41:56.338Z,100.00
2023-03-26T16:44:38.185Z,100.00
2023-03-26T16:47:19.553Z,100.00
2023-03-26T16:50:08.852Z,100.00
2023-03-26T16:52:42.628Z,100.00
2023-03-26T16:55:21.622Z,100.00
2023-03-26T16:57:53.616Z,100.00
2023-03-26T17:00:27.399Z,100.00
2023-03-26T17:03:03.544Z,100.00
2023-03-26T17:05:35.220Z,100.00
2023-03-26T17:08:05.096Z,100.00
2023-03-26T17:10:35.815Z,100.00
2023-03-26T17:13:06.324Z,100.00
2023-03-26T17:15:45.083Z,100.00
2023-03-26T17:18:17.297Z,100.00
2023-03-26T17:20:50.274Z,100.00
2023-03-26T17:23:28.181Z,100.00
2023-03-26T17:26:11.957Z,100.00
2023-03-26T17:29:10.564Z,100.00
2023-03-26T17:31:45.150Z,100.00
2023-03-26T17:34:30.499Z,100.00
2023-03-26T17:36:58.429Z,100.00
2023-03-26T17:39:40.289Z,100.00
2023-03-26T17:42:15.954Z,100.00
2023-03-26T17:44:44.158Z,100.00
2023-03-26T17:47:24.405Z,100.00
2023-03-26T17:49:53.803Z,100.00
2023-03-26T17:52:26.097Z,100.00
2023-03-26T17:54:55.060Z,100.00
2023-03-26T17:57:24.154Z,100.00
2023-03-26T17:59:53.087Z,100.00
2023-03-26T18:02:21.446Z,100.00
2023-03-26T18:04:49.913Z,100.00
2023-03-26T18:07:16.969Z,100.00
2023-03-26T18:09:43.435Z,100.00
2023-03-26T18:12:28.391Z,100.00
2023-03-26T18:14:55.744Z,100.00
2023-03-26T18:17:23.577Z,100.00
2023-03-26T18:19:52.426Z,100.00
2023-03-26T18:22:26.582Z,100.00
2023-03-26T18:24:56.943Z,100.00
2023-03-26T18:27:23.608Z,100.00
2023-03-26T18:30:01.706Z,100.00
2023-03-26T18:32:41.054Z,100.00
2023-03-26T18:35:20.282Z,100.00
2023-03-26T18:37:49.112Z,100.00
2023-03-26T18:40:16.706Z,100.00
2023-03-26T18:42:48.641Z,100.00
2023-03-26T18:45:14.965Z,100.00
2023-03-26T18:47:41.370Z,100.00
2023-03-26T18:50:15.473Z,100.00
2023-03-26T18:52:41.980Z,100.00
2023-03-26T18:55:11.086Z,100.00
2023-03-26T18:57:37.462Z,100.00
2023-03-26T19:00:22.187Z,100.00
2023-03-26T19:02:50.775Z,100.00
2023-03-26T19:05:18.311Z,100.00
2023-03-26T19:07:46.366Z,100.00
2023-03-26T19:10:18.941Z,100.00
2023-03-26T19:12:46.294Z,100.00
2023-03-26T19:15:17.349Z,100.00
2023-03-26T19:17:48.606Z,100.00
2023-03-26T19:20:19.576Z,100.00
2023-03-26T19:22:47.034Z,100.00
2023-03-26T19:25:25.275Z,100.00
2023-03-26T19:27:51.784Z,100.00
2023-03-26T19:30:28.363Z,100.00
2023-03-26T19:32:55.679Z,100.00
2023-03-26T19:35:40.421Z,100.00
2023-03-26T19:38:13.523Z,100.00
2023-03-26T19:40:42.318Z,100.00
2023-03-26T19:43:11.599Z,100.00
2023-03-26T19:45:37.972Z,100.00
2023-03-26T19:48:46.758Z,100.00
2023-03-26T19:51:18.891Z,100.00
2023-03-26T19:53:47.753Z,100.00
2023-03-26T19:56:15.270Z,100.00
2023-03-26T19:58:42.658Z,100.00
2023-03-26T20:01:16.840Z,100.00
2023-03-26T20:03:44.529Z,100.00
2023-03-26T20:06:18.671Z,100.00
2023-03-26T20:08:45.354Z,100.00
2023-03-26T20:11:19.663Z,100.00
2023-03-26T20:13:46.493Z,100.00
2023-03-26T20:16:19.081Z,100.00
2023-03-26T20:18:46.079Z,100.00
2023-03-26T20:21:12.773Z,100.00
2023-03-26T20:23:39.833Z,100.00
2023-03-26T20:26:09.874Z,100.00
2023-03-26T20:28:42.452Z,100.00
2023-03-26T20:31:16.720Z,100.00
2023-03-26T20:33:43.099Z,100.00
2023-03-26T20:36:32.984Z,100.00
2023-03-26T20:39:02.000Z,100.00
2023-03-26T20:41:28.985Z,100.00
2023-03-26T20:43:55.627Z,100.00
2023-03-26T20:46:23.284Z,100.00
2023-03-26T20:48:57.916Z,100.00
2023-03-26T20:51:24.331Z,100.00
2023-03-26T20:53:50.720Z,100.00
2023-03-26T20:56:18.365Z,100.00
2023-03-26T20:58:46.362Z,100.00
2023-03-26T21:01:13.813Z,100.00
2023-03-26T21:03:41.233Z,100.00
2023-03-26T21:06:13.181Z,100.00
2023-03-26T21:08:40.384Z,100.00
2023-03-26T21:11:26.861Z,100.00
2023-03-26T21:14:01.923Z,100.00
2023-03-26T21:16:28.488Z,100.00
2023-03-26T21:18:55.123Z,100.00
2023-03-26T21:21:40.422Z,100.00
2023-03-26T21:24:25.279Z,100.00
2023-03-26T21:27:00.955Z,100.00
2023-03-26T21:29:27.484Z,100.00
2023-03-26T21:31:55.226Z,100.00
2023-03-26T21:34:22.275Z,100.00
2023-03-26T21:36:48.737Z,100.00
2023-03-26T21:39:15.779Z,100.00
2023-03-26T21:41:47.649Z,100.00
2023-03-26T21:44:18.357Z,100.00
2023-03-26T21:46:45.742Z,100.00
2023-03-26T21:49:13.637Z,100.00
2023-03-26T21:51:40.523Z,100.00
2023-03-26T21:54:21.981Z,100.00
2023-03-26T21:57:07.288Z,100.00
2023-03-26T21:59:43.159Z,100.00
2023-03-26T22:02:17.199Z,100.00
2023-03-26T22:04:46.606Z,100.00
2023-03-26T22:07:18.902Z,100.00
2023-03-26T22:09:45.451Z,100.00
2023-03-26T22:12:11.866Z,100.00
2023-03-26T22:14:38.668Z,100.00
2023-03-26T22:17:05.179Z,100.00
2023-03-26T22:19:31.516Z,100.00
2023-03-26T22:21:58.290Z,100.00
2023-03-26T22:24:24.669Z,100.00
2023-03-26T22:26:50.999Z,100.00
2023-03-26T22:29:17.312Z,100.00
2023-03-26T22:31:43.845Z,100.00
2023-03-26T22:34:10.236Z,100.00
2023-03-26T22:36:38.951Z,100.00
2023-03-26T22:39:06.964Z,100.00
2023-03-26T22:41:33.296Z,100.00
2023-03-26T22:44:09.335Z,100.00
2023-03-26T22:46:47.283Z,100.00
2023-03-26T22:49:13.652Z,100.00
2023-03-26T22:51:39.968Z,100.00
2023-03-26T22:54:06.392Z,100.00
2023-03-26T22:56:32.794Z,100.00
2023-03-26T22:58:59.166Z,100.00
2023-03-26T23:01:26.129Z,100.00
2023-03-26T23:03:52.509Z,100.00
2023-03-26T23:06:18.891Z,100.00
2023-03-26T23:08:45.311Z,100.00
2023-03-26T23:11:13.175Z,100.00
2023-03-26T23:13:40.322Z,100.00
2023-03-26T23:16:06.904Z,100.00
2023-03-26T23:18:33.334Z,100.00
2023-03-26T23:20:59.690Z,100.00
2023-03-26T23:23:29.826Z,100.00
2023-03-26T23:26:00.225Z,100.00
2023-03-26T23:28:26.716Z,100.00
2023-03-26T23:30:54.082Z,100.00
2023-03-26T23:33:22.086Z,100.00
2023-03-26T23:35:49.442Z,100.00
2023-03-26T23:38:17.943Z,100.00
2023-03-26T23:40:44.864Z,100.00
2023-03-26T23:43:24.482Z,100.00
2023-03-26T23:45:50.882Z,100.00
2023-03-26T23:48:22.250Z,100.00
2023-03-26T23:50:50.413Z,100.00
2023-03-26T23:53:17.585Z,100.00
2023-03-26T23:55:47.696Z,100.00
2023-03-26T23:58:14.623Z,100.00
